sensor_id;sensor_type;location;lat;lon;timestamp;temperature;humidity
11239;DHT22;5677;48.488;13.436;2023-05-14T00:01:05;15.70;50.40
11239;DHT22;5677;48.488;13.436;2023-05-14T00:03:32;15.70;50.40
11239;DHT22;5677;48.488;13.436;2023-05-14T00:05:59;15.80;50.40
11239;DHT22;5677;48.488;13.436;2023-05-14T00:08:26;15.70;50.40
11239;DHT22;5677;48.488;13.436;2023-05-14T00:10:53;15.70;50.40
11239;DHT22;5677;48.488;13.436;2023-05-14T00:13:20;15.70;50.40
11239;DHT22;5677;48.488;13.436;2023-05-14T00:15:46;15.70;50.40
11239;DHT22;5677;48.488;13.436;2023-05-14T00:18:14;15.70;50.40
11239;DHT22;5677;48.488;13.436;2023-05-14T00:20:41;15.70;50.40
11239;DHT22;5677;48.488;13.436;2023-05-14T00:23:08;15.70;50.40
11239;DHT22;5677;48.488;13.436;2023-05-14T00:25:35;15.70;50.40
11239;DHT22;5677;48.488;13.436;2023-05-14T00:28:02;15.70;50.40
11239;DHT22;5677;48.488;13.436;2023-05-14T00:30:29;15.70;50.50
11239;DHT22;5677;48.488;13.436;2023-05-14T00:32:56;15.70;50.40
11239;DHT22;5677;48.488;13.436;2023-05-14T00:35:24;15.70;50.40
11239;DHT22;5677;48.488;13.436;2023-05-14T00:37:51;15.60;50.30
11239;DHT22;5677;48.488;13.436;2023-05-14T00:42:45;15.70;50.40
11239;DHT22;5677;48.488;13.436;2023-05-14T00:45:12;15.70;50.40
11239;DHT22;5677;48.488;13.436;2023-05-14T00:47:38;15.70;50.50
11239;DHT22;5677;48.488;13.436;2023-05-14T00:50:06;15.70;50.40
11239;DHT22;5677;48.488;13.436;2023-05-14T00:52:35;15.70;50.50
11239;DHT22;5677;48.488;13.436;2023-05-14T00:55:03;15.70;50.50
11239;DHT22;5677;48.488;13.436;2023-05-14T00:57:31;15.70;50.40
11239;DHT22;5677;48.488;13.436;2023-05-14T00:59:58;15.60;50.30
11239;DHT22;5677;48.488;13.436;2023-05-14T01:02:25;15.60;50.30
11239;DHT22;5677;48.488;13.436;2023-05-14T01:04:52;15.60;50.40
11239;DHT22;5677;48.488;13.436;2023-05-14T01:07:25;15.60;50.40
11239;DHT22;5677;48.488;13.436;2023-05-14T01:10:00;15.60;50.40
11239;DHT22;5677;48.488;13.436;2023-05-14T01:12:33;15.60;50.40
11239;DHT22;5677;48.488;13.436;2023-05-14T01:15:06;15.60;50.40
11239;DHT22;5677;48.488;13.436;2023-05-14T01:17:38;15.60;50.40
11239;DHT22;5677;48.488;13.436;2023-05-14T01:20:07;15.60;50.40
11239;DHT22;5677;48.488;13.436;2023-05-14T01:22:36;15.60;50.30
11239;DHT22;5677;48.488;13.436;2023-05-14T01:25:03;15.60;50.40
11239;DHT22;5677;48.488;13.436;2023-05-14T01:27:34;15.60;50.40
11239;DHT22;5677;48.488;13.436;2023-05-14T01:30:08;15.60;50.40
11239;DHT22;5677;48.488;13.436;2023-05-14T01:32:39;15.60;50.30
11239;DHT22;5677;48.488;13.436;2023-05-14T01:35:08;15.60;50.40
11239;DHT22;5677;48.488;13.436;2023-05-14T01:37:38;15.60;50.40
11239;DHT22;5677;48.488;13.436;2023-05-14T01:40:06;15.60;50.40
11239;DHT22;5677;48.488;13.436;2023-05-14T01:42:34;15.60;50.40
11239;DHT22;5677;48.488;13.436;2023-05-14T01:45:01;15.60;50.40
11239;DHT22;5677;48.488;13.436;2023-05-14T01:47:28;15.60;50.40
11239;DHT22;5677;48.488;13.436;2023-05-14T01:49:55;15.60;50.40
11239;DHT22;5677;48.488;13.436;2023-05-14T01:52:22;15.60;50.40
11239;DHT22;5677;48.488;13.436;2023-05-14T01:54:50;15.60;50.40
11239;DHT22;5677;48.488;13.436;2023-05-14T01:57:17;15.50;50.40
11239;DHT22;5677;48.488;13.436;2023-05-14T01:59:43;15.60;50.40
11239;DHT22;5677;48.488;13.436;2023-05-14T02:02:10;15.60;50.40
11239;DHT22;5677;48.488;13.436;2023-05-14T02:04:37;15.50;50.40
11239;DHT22;5677;48.488;13.436;2023-05-14T02:07:04;15.50;50.40
11239;DHT22;5677;48.488;13.436;2023-05-14T02:09:30;15.50;50.40
11239;DHT22;5677;48.488;13.436;2023-05-14T02:11:58;15.50;50.40
11239;DHT22;5677;48.488;13.436;2023-05-14T02:14:25;15.50;50.40
11239;DHT22;5677;48.488;13.436;2023-05-14T02:16:52;15.50;50.40
11239;DHT22;5677;48.488;13.436;2023-05-14T02:19:18;15.50;50.40
11239;DHT22;5677;48.488;13.436;2023-05-14T02:21:45;15.50;50.40
11239;DHT22;5677;48.488;13.436;2023-05-14T02:24:12;15.50;50.40
11239;DHT22;5677;48.488;13.436;2023-05-14T02:26:39;15.50;50.40
11239;DHT22;5677;48.488;13.436;2023-05-14T02:29:07;15.50;50.40
11239;DHT22;5677;48.488;13.436;2023-05-14T02:31:34;15.50;50.40
11239;DHT22;5677;48.488;13.436;2023-05-14T02:34:02;15.50;50.40
11239;DHT22;5677;48.488;13.436;2023-05-14T02:36:28;15.50;50.40
11239;DHT22;5677;48.488;13.436;2023-05-14T02:38:57;15.50;50.40
11239;DHT22;5677;48.488;13.436;2023-05-14T02:41:24;15.50;50.40
11239;DHT22;5677;48.488;13.436;2023-05-14T02:43:51;15.50;50.40
11239;DHT22;5677;48.488;13.436;2023-05-14T02:46:19;15.50;50.40
11239;DHT22;5677;48.488;13.436;2023-05-14T02:48:46;15.50;50.40
11239;DHT22;5677;48.488;13.436;2023-05-14T02:51:13;15.50;50.40
11239;DHT22;5677;48.488;13.436;2023-05-14T02:53:40;15.40;50.30
11239;DHT22;5677;48.488;13.436;2023-05-14T02:56:07;15.50;50.40
11239;DHT22;5677;48.488;13.436;2023-05-14T02:58:34;15.50;50.40
11239;DHT22;5677;48.488;13.436;2023-05-14T03:01:00;15.50;50.40
11239;DHT22;5677;48.488;13.436;2023-05-14T03:03:29;15.40;50.30
11239;DHT22;5677;48.488;13.436;2023-05-14T03:05:56;15.40;51.00
11239;DHT22;5677;48.488;13.436;2023-05-14T03:08:23;15.40;50.30
11239;DHT22;5677;48.488;13.436;2023-05-14T03:10:50;15.40;50.30
11239;DHT22;5677;48.488;13.436;2023-05-14T03:13:17;15.40;50.30
11239;DHT22;5677;48.488;13.436;2023-05-14T03:15:45;15.40;50.30
11239;DHT22;5677;48.488;13.436;2023-05-14T03:18:12;15.40;50.30
11239;DHT22;5677;48.488;13.436;2023-05-14T03:20:41;15.40;50.30
11239;DHT22;5677;48.488;13.436;2023-05-14T03:23:07;15.40;50.30
11239;DHT22;5677;48.488;13.436;2023-05-14T03:25:34;15.40;50.30
11239;DHT22;5677;48.488;13.436;2023-05-14T03:28:01;15.40;50.30
11239;DHT22;5677;48.488;13.436;2023-05-14T03:30:28;15.40;50.30
11239;DHT22;5677;48.488;13.436;2023-05-14T03:32:56;15.40;50.30
11239;DHT22;5677;48.488;13.436;2023-05-14T03:35:23;15.40;50.30
11239;DHT22;5677;48.488;13.436;2023-05-14T03:37:51;15.40;50.30
11239;DHT22;5677;48.488;13.436;2023-05-14T03:40:18;15.40;50.30
11239;DHT22;5677;48.488;13.436;2023-05-14T03:42:45;15.40;50.30
11239;DHT22;5677;48.488;13.436;2023-05-14T03:45:12;15.40;50.30
11239;DHT22;5677;48.488;13.436;2023-05-14T03:47:38;15.40;50.30
11239;DHT22;5677;48.488;13.436;2023-05-14T03:50:07;15.40;50.30
11239;DHT22;5677;48.488;13.436;2023-05-14T03:52:34;15.40;50.30
11239;DHT22;5677;48.488;13.436;2023-05-14T03:55:02;15.40;50.30
11239;DHT22;5677;48.488;13.436;2023-05-14T03:57:29;15.40;50.30
11239;DHT22;5677;48.488;13.436;2023-05-14T03:59:55;15.40;50.30
11239;DHT22;5677;48.488;13.436;2023-05-14T04:02:22;15.40;50.30
11239;DHT22;5677;48.488;13.436;2023-05-14T04:04:49;15.40;50.30
11239;DHT22;5677;48.488;13.436;2023-05-14T04:07:15;15.40;50.30
11239;DHT22;5677;48.488;13.436;2023-05-14T04:09:42;15.40;50.30
11239;DHT22;5677;48.488;13.436;2023-05-14T04:12:10;15.40;50.30
11239;DHT22;5677;48.488;13.436;2023-05-14T04:14:37;15.40;50.30
11239;DHT22;5677;48.488;13.436;2023-05-14T04:17:04;15.40;50.30
11239;DHT22;5677;48.488;13.436;2023-05-14T04:19:31;15.40;50.30
11239;DHT22;5677;48.488;13.436;2023-05-14T04:21:58;15.30;50.30
11239;DHT22;5677;48.488;13.436;2023-05-14T04:24:24;15.40;50.30
11239;DHT22;5677;48.488;13.436;2023-05-14T04:26:51;15.40;50.20
11239;DHT22;5677;48.488;13.436;2023-05-14T04:29:19;15.30;50.20
11239;DHT22;5677;48.488;13.436;2023-05-14T04:31:46;15.40;50.30
11239;DHT22;5677;48.488;13.436;2023-05-14T04:34:12;15.40;50.30
11239;DHT22;5677;48.488;13.436;2023-05-14T04:36:39;15.40;50.20
11239;DHT22;5677;48.488;13.436;2023-05-14T04:39:06;15.40;50.20
11239;DHT22;5677;48.488;13.436;2023-05-14T04:41:33;15.40;50.20
11239;DHT22;5677;48.488;13.436;2023-05-14T04:44:02;15.40;50.20
11239;DHT22;5677;48.488;13.436;2023-05-14T04:46:30;15.30;50.20
11239;DHT22;5677;48.488;13.436;2023-05-14T04:48:57;15.40;50.20
11239;DHT22;5677;48.488;13.436;2023-05-14T04:51:24;15.40;50.20
11239;DHT22;5677;48.488;13.436;2023-05-14T04:53:50;15.40;50.10
11239;DHT22;5677;48.488;13.436;2023-05-14T04:56:17;15.40;50.10
11239;DHT22;5677;48.488;13.436;2023-05-14T04:58:44;15.40;50.10
11239;DHT22;5677;48.488;13.436;2023-05-14T05:01:10;15.40;50.10
11239;DHT22;5677;48.488;13.436;2023-05-14T05:03:38;15.40;50.10
11239;DHT22;5677;48.488;13.436;2023-05-14T05:06:06;15.40;50.10
11239;DHT22;5677;48.488;13.436;2023-05-14T05:08:32;15.40;50.10
11239;DHT22;5677;48.488;13.436;2023-05-14T05:10:59;15.40;50.10
11239;DHT22;5677;48.488;13.436;2023-05-14T05:13:26;15.40;50.10
11239;DHT22;5677;48.488;13.436;2023-05-14T05:15:52;15.40;50.00
11239;DHT22;5677;48.488;13.436;2023-05-14T05:18:19;15.40;50.00
11239;DHT22;5677;48.488;13.436;2023-05-14T05:20:47;15.40;50.00
11239;DHT22;5677;48.488;13.436;2023-05-14T05:23:14;15.40;50.00
11239;DHT22;5677;48.488;13.436;2023-05-14T05:25:40;15.40;50.00
11239;DHT22;5677;48.488;13.436;2023-05-14T05:28:07;15.40;50.10
11239;DHT22;5677;48.488;13.436;2023-05-14T05:30:34;15.40;50.00
11239;DHT22;5677;48.488;13.436;2023-05-14T05:33:01;15.40;50.10
11239;DHT22;5677;48.488;13.436;2023-05-14T05:35:27;15.50;50.10
11239;DHT22;5677;48.488;13.436;2023-05-14T05:37:56;15.40;49.90
11239;DHT22;5677;48.488;13.436;2023-05-14T05:40:23;15.50;50.00
11239;DHT22;5677;48.488;13.436;2023-05-14T05:42:50;15.50;49.90
11239;DHT22;5677;48.488;13.436;2023-05-14T05:45:16;15.50;49.80
11239;DHT22;5677;48.488;13.436;2023-05-14T05:47:43;15.50;49.80
11239;DHT22;5677;48.488;13.436;2023-05-14T05:50:10;15.60;49.80
11239;DHT22;5677;48.488;13.436;2023-05-14T05:52:37;15.60;49.80
11239;DHT22;5677;48.488;13.436;2023-05-14T05:55:06;15.60;49.70
11239;DHT22;5677;48.488;13.436;2023-05-14T05:57:33;15.60;49.70
11239;DHT22;5677;48.488;13.436;2023-05-14T06:00:00;15.60;49.60
11239;DHT22;5677;48.488;13.436;2023-05-14T06:02:34;15.60;49.50
11239;DHT22;5677;48.488;13.436;2023-05-14T06:05:01;15.70;49.60
11239;DHT22;5677;48.488;13.436;2023-05-14T06:07:28;15.70;49.50
11239;DHT22;5677;48.488;13.436;2023-05-14T06:09:55;15.70;49.50
11239;DHT22;5677;48.488;13.436;2023-05-14T06:12:23;15.70;49.40
11239;DHT22;5677;48.488;13.436;2023-05-14T06:14:50;15.70;49.40
11239;DHT22;5677;48.488;13.436;2023-05-14T06:17:17;15.70;49.40
11239;DHT22;5677;48.488;13.436;2023-05-14T06:19:43;15.70;49.40
11239;DHT22;5677;48.488;13.436;2023-05-14T06:22:10;15.70;49.40
11239;DHT22;5677;48.488;13.436;2023-05-14T06:24:37;15.70;49.40
11239;DHT22;5677;48.488;13.436;2023-05-14T06:27:04;15.70;49.40
11239;DHT22;5677;48.488;13.436;2023-05-14T06:29:32;15.70;49.40
11239;DHT22;5677;48.488;13.436;2023-05-14T06:32:00;15.70;49.40
11239;DHT22;5677;48.488;13.436;2023-05-14T06:34:28;15.70;49.40
11239;DHT22;5677;48.488;13.436;2023-05-14T06:36:54;15.70;49.40
11239;DHT22;5677;48.488;13.436;2023-05-14T06:39:21;15.70;49.30
11239;DHT22;5677;48.488;13.436;2023-05-14T06:41:48;15.70;49.30
11239;DHT22;5677;48.488;13.436;2023-05-14T06:44:15;15.80;49.20
11239;DHT22;5677;48.488;13.436;2023-05-14T06:46:43;15.80;49.20
11239;DHT22;5677;48.488;13.436;2023-05-14T06:49:10;15.80;49.20
11239;DHT22;5677;48.488;13.436;2023-05-14T06:51:36;15.80;49.10
11239;DHT22;5677;48.488;13.436;2023-05-14T06:54:05;15.80;49.10
11239;DHT22;5677;48.488;13.436;2023-05-14T06:56:31;15.80;49.20
11239;DHT22;5677;48.488;13.436;2023-05-14T06:58:58;15.80;49.10
11239;DHT22;5677;48.488;13.436;2023-05-14T07:01:25;15.80;49.20
11239;DHT22;5677;48.488;13.436;2023-05-14T07:03:53;15.80;49.10
11239;DHT22;5677;48.488;13.436;2023-05-14T07:06:20;15.80;49.20
11239;DHT22;5677;48.488;13.436;2023-05-14T07:08:47;15.80;49.20
11239;DHT22;5677;48.488;13.436;2023-05-14T07:11:14;15.70;49.20
11239;DHT22;5677;48.488;13.436;2023-05-14T07:13:41;15.70;49.20
11239;DHT22;5677;48.488;13.436;2023-05-14T07:16:08;15.80;49.20
11239;DHT22;5677;48.488;13.436;2023-05-14T07:18:35;15.80;49.20
11239;DHT22;5677;48.488;13.436;2023-05-14T07:21:03;15.80;49.10
11239;DHT22;5677;48.488;13.436;2023-05-14T07:23:30;15.80;49.10
11239;DHT22;5677;48.488;13.436;2023-05-14T07:25:58;15.90;49.10
11239;DHT22;5677;48.488;13.436;2023-05-14T07:28:24;15.90;49.00
11239;DHT22;5677;48.488;13.436;2023-05-14T07:30:51;15.90;49.00
11239;DHT22;5677;48.488;13.436;2023-05-14T07:33:18;16.00;48.90
11239;DHT22;5677;48.488;13.436;2023-05-14T07:35:44;16.00;48.90
11239;DHT22;5677;48.488;13.436;2023-05-14T07:38:12;16.00;48.80
11239;DHT22;5677;48.488;13.436;2023-05-14T07:40:39;16.00;48.80
11239;DHT22;5677;48.488;13.436;2023-05-14T07:43:06;16.10;48.80
11239;DHT22;5677;48.488;13.436;2023-05-14T07:45:33;16.10;48.90
11239;DHT22;5677;48.488;13.436;2023-05-14T07:47:59;16.10;48.80
11239;DHT22;5677;48.488;13.436;2023-05-14T07:50:26;16.10;48.80
11239;DHT22;5677;48.488;13.436;2023-05-14T07:52:53;16.10;48.80
11239;DHT22;5677;48.488;13.436;2023-05-14T07:55:21;16.10;48.80
11239;DHT22;5677;48.488;13.436;2023-05-14T07:57:48;16.10;48.80
11239;DHT22;5677;48.488;13.436;2023-05-14T08:00:15;16.10;48.80
11239;DHT22;5677;48.488;13.436;2023-05-14T08:02:43;16.10;48.80
11239;DHT22;5677;48.488;13.436;2023-05-14T08:05:10;16.10;48.80
11239;DHT22;5677;48.488;13.436;2023-05-14T08:07:37;16.10;48.90
11239;DHT22;5677;48.488;13.436;2023-05-14T08:10:05;16.10;48.90
11239;DHT22;5677;48.488;13.436;2023-05-14T08:12:33;16.10;48.90
11239;DHT22;5677;48.488;13.436;2023-05-14T08:15:01;16.10;48.90
11239;DHT22;5677;48.488;13.436;2023-05-14T08:17:27;16.10;48.90
11239;DHT22;5677;48.488;13.436;2023-05-14T08:19:54;16.10;48.90
11239;DHT22;5677;48.488;13.436;2023-05-14T08:22:21;16.10;48.90
11239;DHT22;5677;48.488;13.436;2023-05-14T08:24:47;16.10;48.90
11239;DHT22;5677;48.488;13.436;2023-05-14T08:27:14;16.10;48.90
11239;DHT22;5677;48.488;13.436;2023-05-14T08:29:43;16.10;48.90
11239;DHT22;5677;48.488;13.436;2023-05-14T08:32:09;16.10;48.90
11239;DHT22;5677;48.488;13.436;2023-05-14T08:34:36;16.10;48.90
11239;DHT22;5677;48.488;13.436;2023-05-14T08:37:03;16.10;48.90
11239;DHT22;5677;48.488;13.436;2023-05-14T08:39:30;16.10;48.90
11239;DHT22;5677;48.488;13.436;2023-05-14T08:41:57;16.10;48.90
11239;DHT22;5677;48.488;13.436;2023-05-14T08:44:33;16.20;48.80
11239;DHT22;5677;48.488;13.436;2023-05-14T08:47:03;16.10;48.90
11239;DHT22;5677;48.488;13.436;2023-05-14T08:49:38;16.20;48.80
11239;DHT22;5677;48.488;13.436;2023-05-14T08:52:06;16.20;48.80
11239;DHT22;5677;48.488;13.436;2023-05-14T08:54:34;16.20;48.80
11239;DHT22;5677;48.488;13.436;2023-05-14T08:57:02;16.10;48.80
11239;DHT22;5677;48.488;13.436;2023-05-14T08:59:29;16.20;48.80
11239;DHT22;5677;48.488;13.436;2023-05-14T09:01:57;16.20;48.90
11239;DHT22;5677;48.488;13.436;2023-05-14T09:04:27;16.20;48.80
11239;DHT22;5677;48.488;13.436;2023-05-14T09:06:54;16.20;48.80
11239;DHT22;5677;48.488;13.436;2023-05-14T09:09:21;16.20;48.80
11239;DHT22;5677;48.488;13.436;2023-05-14T09:11:50;16.20;48.80
11239;DHT22;5677;48.488;13.436;2023-05-14T09:14:17;16.20;48.80
11239;DHT22;5677;48.488;13.436;2023-05-14T09:16:44;16.20;48.70
11239;DHT22;5677;48.488;13.436;2023-05-14T09:19:12;16.20;48.70
11239;DHT22;5677;48.488;13.436;2023-05-14T09:21:41;16.30;48.80
11239;DHT22;5677;48.488;13.436;2023-05-14T09:24:18;16.20;48.70
11239;DHT22;5677;48.488;13.436;2023-05-14T09:26:49;16.20;48.70
11239;DHT22;5677;48.488;13.436;2023-05-14T09:29:16;16.20;48.70
11239;DHT22;5677;48.488;13.436;2023-05-14T09:31:43;16.30;48.70
11239;DHT22;5677;48.488;13.436;2023-05-14T09:34:10;16.20;48.70
11239;DHT22;5677;48.488;13.436;2023-05-14T09:36:37;16.30;48.80
11239;DHT22;5677;48.488;13.436;2023-05-14T09:39:05;16.20;48.70
11239;DHT22;5677;48.488;13.436;2023-05-14T09:41:32;16.30;48.80
11239;DHT22;5677;48.488;13.436;2023-05-14T09:43:59;16.30;48.70
11239;DHT22;5677;48.488;13.436;2023-05-14T09:46:26;16.30;48.80
11239;DHT22;5677;48.488;13.436;2023-05-14T09:48:55;16.30;48.80
11239;DHT22;5677;48.488;13.436;2023-05-14T09:51:23;16.30;48.70
11239;DHT22;5677;48.488;13.436;2023-05-14T09:53:51;16.30;48.70
11239;DHT22;5677;48.488;13.436;2023-05-14T09:56:20;16.30;48.80
11239;DHT22;5677;48.488;13.436;2023-05-14T09:58:47;16.30;48.70
11239;DHT22;5677;48.488;13.436;2023-05-14T10:01:14;16.30;48.70
11239;DHT22;5677;48.488;13.436;2023-05-14T10:03:42;16.30;48.70
11239;DHT22;5677;48.488;13.436;2023-05-14T10:06:12;16.30;48.70
11239;DHT22;5677;48.488;13.436;2023-05-14T10:08:42;16.30;48.70
11239;DHT22;5677;48.488;13.436;2023-05-14T10:11:13;16.30;48.70
11239;DHT22;5677;48.488;13.436;2023-05-14T10:13:47;16.30;48.70
11239;DHT22;5677;48.488;13.436;2023-05-14T10:16:20;16.30;48.70
11239;DHT22;5677;48.488;13.436;2023-05-14T10:18:51;16.30;49.40
11239;DHT22;5677;48.488;13.436;2023-05-14T10:21:21;16.30;48.70
11239;DHT22;5677;48.488;13.436;2023-05-14T10:23:49;16.30;48.80
11239;DHT22;5677;48.488;13.436;2023-05-14T10:26:16;16.30;48.80
11239;DHT22;5677;48.488;13.436;2023-05-14T10:28:45;16.30;48.80
11239;DHT22;5677;48.488;13.436;2023-05-14T10:31:12;16.30;48.80
11239;DHT22;5677;48.488;13.436;2023-05-14T10:33:46;16.30;48.80
11239;DHT22;5677;48.488;13.436;2023-05-14T10:36:15;16.30;48.80
11239;DHT22;5677;48.488;13.436;2023-05-14T10:38:42;16.30;48.80
11239;DHT22;5677;48.488;13.436;2023-05-14T10:41:10;16.20;48.70
11239;DHT22;5677;48.488;13.436;2023-05-14T10:43:38;16.30;48.80
11239;DHT22;5677;48.488;13.436;2023-05-14T10:46:07;16.30;48.80
11239;DHT22;5677;48.488;13.436;2023-05-14T10:48:36;16.30;48.90
11239;DHT22;5677;48.488;13.436;2023-05-14T10:51:03;16.30;48.80
11239;DHT22;5677;48.488;13.436;2023-05-14T10:53:34;16.30;48.80
11239;DHT22;5677;48.488;13.436;2023-05-14T10:56:06;16.30;48.90
11239;DHT22;5677;48.488;13.436;2023-05-14T10:58:35;16.30;48.90
11239;DHT22;5677;48.488;13.436;2023-05-14T11:01:02;16.30;48.80
11239;DHT22;5677;48.488;13.436;2023-05-14T11:03:38;16.30;48.90
11239;DHT22;5677;48.488;13.436;2023-05-14T11:06:05;16.20;48.70
11239;DHT22;5677;48.488;13.436;2023-05-14T11:08:32;16.30;48.80
11239;DHT22;5677;48.488;13.436;2023-05-14T11:10:59;16.30;48.80
11239;DHT22;5677;48.488;13.436;2023-05-14T11:13:27;16.30;48.80
11239;DHT22;5677;48.488;13.436;2023-05-14T11:15:54;16.30;48.80
11239;DHT22;5677;48.488;13.436;2023-05-14T11:18:28;16.20;48.80
11239;DHT22;5677;48.488;13.436;2023-05-14T11:20:58;16.30;48.90
11239;DHT22;5677;48.488;13.436;2023-05-14T11:23:25;16.30;48.90
11239;DHT22;5677;48.488;13.436;2023-05-14T11:25:53;16.20;48.80
11239;DHT22;5677;48.488;13.436;2023-05-14T11:28:20;16.30;48.90
11239;DHT22;5677;48.488;13.436;2023-05-14T11:30:48;16.30;48.90
11239;DHT22;5677;48.488;13.436;2023-05-14T11:33:15;16.30;48.90
11239;DHT22;5677;48.488;13.436;2023-05-14T11:35:42;16.30;48.90
11239;DHT22;5677;48.488;13.436;2023-05-14T11:38:14;16.20;48.80
11239;DHT22;5677;48.488;13.436;2023-05-14T11:40:41;16.20;49.50
11239;DHT22;5677;48.488;13.436;2023-05-14T11:43:08;16.20;48.90
11239;DHT22;5677;48.488;13.436;2023-05-14T11:45:35;16.30;48.90
11239;DHT22;5677;48.488;13.436;2023-05-14T11:48:10;16.30;49.00
11239;DHT22;5677;48.488;13.436;2023-05-14T11:50:37;16.20;48.80
11239;DHT22;5677;48.488;13.436;2023-05-14T11:53:04;16.20;48.80
11239;DHT22;5677;48.488;13.436;2023-05-14T11:55:34;16.20;48.80
11239;DHT22;5677;48.488;13.436;2023-05-14T11:58:01;16.20;48.80
11239;DHT22;5677;48.488;13.436;2023-05-14T12:00:28;16.20;48.90
11239;DHT22;5677;48.488;13.436;2023-05-14T12:02:55;16.20;48.90
11239;DHT22;5677;48.488;13.436;2023-05-14T12:05:22;16.20;48.90
11239;DHT22;5677;48.488;13.436;2023-05-14T12:07:49;16.20;48.90
11239;DHT22;5677;48.488;13.436;2023-05-14T12:10:16;16.20;48.90
11239;DHT22;5677;48.488;13.436;2023-05-14T12:12:47;16.30;49.00
11239;DHT22;5677;48.488;13.436;2023-05-14T12:15:14;16.20;48.90
11239;DHT22;5677;48.488;13.436;2023-05-14T12:17:41;16.20;48.90
11239;DHT22;5677;48.488;13.436;2023-05-14T12:20:09;16.20;48.90
11239;DHT22;5677;48.488;13.436;2023-05-14T12:22:37;16.20;48.90
11239;DHT22;5677;48.488;13.436;2023-05-14T12:25:10;16.20;48.90
11239;DHT22;5677;48.488;13.436;2023-05-14T12:27:38;16.20;48.90
11239;DHT22;5677;48.488;13.436;2023-05-14T12:30:07;16.20;48.90
11239;DHT22;5677;48.488;13.436;2023-05-14T12:32:34;16.20;48.90
11239;DHT22;5677;48.488;13.436;2023-05-14T12:35:01;16.20;48.90
11239;DHT22;5677;48.488;13.436;2023-05-14T12:37:28;16.20;48.90
11239;DHT22;5677;48.488;13.436;2023-05-14T12:39:55;16.20;48.90
11239;DHT22;5677;48.488;13.436;2023-05-14T12:42:21;16.20;48.90
11239;DHT22;5677;48.488;13.436;2023-05-14T12:44:48;16.20;48.90
11239;DHT22;5677;48.488;13.436;2023-05-14T12:47:16;16.20;48.90
11239;DHT22;5677;48.488;13.436;2023-05-14T12:49:43;16.20;48.90
11239;DHT22;5677;48.488;13.436;2023-05-14T12:52:09;16.20;48.90
11239;DHT22;5677;48.488;13.436;2023-05-14T12:54:36;16.20;48.90
11239;DHT22;5677;48.488;13.436;2023-05-14T12:57:05;16.20;48.90
11239;DHT22;5677;48.488;13.436;2023-05-14T12:59:31;16.20;48.90
11239;DHT22;5677;48.488;13.436;2023-05-14T13:01:58;16.20;48.90
11239;DHT22;5677;48.488;13.436;2023-05-14T13:04:26;16.20;48.90
11239;DHT22;5677;48.488;13.436;2023-05-14T13:06:53;16.20;48.90
11239;DHT22;5677;48.488;13.436;2023-05-14T13:09:19;16.20;48.90
11239;DHT22;5677;48.488;13.436;2023-05-14T13:11:46;16.20;48.90
11239;DHT22;5677;48.488;13.436;2023-05-14T13:14:13;16.20;48.90
11239;DHT22;5677;48.488;13.436;2023-05-14T13:16:40;16.20;49.00
11239;DHT22;5677;48.488;13.436;2023-05-14T13:19:06;16.20;48.90
11239;DHT22;5677;48.488;13.436;2023-05-14T13:21:35;16.20;48.90
11239;DHT22;5677;48.488;13.436;2023-05-14T13:24:01;16.20;48.90
11239;DHT22;5677;48.488;13.436;2023-05-14T13:26:28;16.20;49.50
11239;DHT22;5677;48.488;13.436;2023-05-14T13:28:55;16.20;48.90
11239;DHT22;5677;48.488;13.436;2023-05-14T13:31:22;16.20;48.80
11239;DHT22;5677;48.488;13.436;2023-05-14T13:33:48;16.20;48.90
11239;DHT22;5677;48.488;13.436;2023-05-14T13:36:15;16.20;48.90
11239;DHT22;5677;48.488;13.436;2023-05-14T13:38:43;16.20;48.90
11239;DHT22;5677;48.488;13.436;2023-05-14T13:41:11;16.20;48.90
11239;DHT22;5677;48.488;13.436;2023-05-14T13:43:37;16.20;48.90
11239;DHT22;5677;48.488;13.436;2023-05-14T13:46:05;16.20;48.90
11239;DHT22;5677;48.488;13.436;2023-05-14T13:48:32;16.20;48.90
11239;DHT22;5677;48.488;13.436;2023-05-14T13:51:00;16.20;48.90
11239;DHT22;5677;48.488;13.436;2023-05-14T13:53:27;16.10;49.00
11239;DHT22;5677;48.488;13.436;2023-05-14T13:55:55;16.20;48.90
11239;DHT22;5677;48.488;13.436;2023-05-14T13:58:23;16.20;49.00
11239;DHT22;5677;48.488;13.436;2023-05-14T14:00:50;16.20;49.00
11239;DHT22;5677;48.488;13.436;2023-05-14T14:03:16;16.20;49.00
11239;DHT22;5677;48.488;13.436;2023-05-14T14:05:43;16.20;49.00
11239;DHT22;5677;48.488;13.436;2023-05-14T14:08:10;16.20;49.00
11239;DHT22;5677;48.488;13.436;2023-05-14T14:10:37;16.20;49.00
11239;DHT22;5677;48.488;13.436;2023-05-14T14:13:07;16.10;49.00
11239;DHT22;5677;48.488;13.436;2023-05-14T14:15:34;16.10;49.00
11239;DHT22;5677;48.488;13.436;2023-05-14T14:18:00;16.10;49.10
11239;DHT22;5677;48.488;13.436;2023-05-14T14:20:27;16.10;49.00
11239;DHT22;5677;48.488;13.436;2023-05-14T14:22:55;16.10;49.00
11239;DHT22;5677;48.488;13.436;2023-05-14T14:25:22;16.10;49.00
11239;DHT22;5677;48.488;13.436;2023-05-14T14:27:49;16.10;49.10
11239;DHT22;5677;48.488;13.436;2023-05-14T14:30:17;16.10;49.10
11239;DHT22;5677;48.488;13.436;2023-05-14T14:32:43;16.10;49.10
11239;DHT22;5677;48.488;13.436;2023-05-14T14:35:11;16.10;49.10
11239;DHT22;5677;48.488;13.436;2023-05-14T14:37:39;16.10;49.20
11239;DHT22;5677;48.488;13.436;2023-05-14T14:40:07;16.10;49.20
11239;DHT22;5677;48.488;13.436;2023-05-14T14:42:34;16.10;49.20
11239;DHT22;5677;48.488;13.436;2023-05-14T14:45:01;16.00;49.10
11239;DHT22;5677;48.488;13.436;2023-05-14T14:47:30;16.10;49.20
11239;DHT22;5677;48.488;13.436;2023-05-14T14:49:57;16.10;49.20
11239;DHT22;5677;48.488;13.436;2023-05-14T14:52:25;16.10;49.20
11239;DHT22;5677;48.488;13.436;2023-05-14T14:54:52;16.10;49.20
11239;DHT22;5677;48.488;13.436;2023-05-14T14:57:19;16.00;49.10
11239;DHT22;5677;48.488;13.436;2023-05-14T14:59:46;16.00;49.10
11239;DHT22;5677;48.488;13.436;2023-05-14T15:02:13;16.00;49.20
11239;DHT22;5677;48.488;13.436;2023-05-14T15:04:41;16.00;49.20
11239;DHT22;5677;48.488;13.436;2023-05-14T15:07:08;16.10;49.30
11239;DHT22;5677;48.488;13.436;2023-05-14T15:09:34;16.10;49.30
11239;DHT22;5677;48.488;13.436;2023-05-14T15:12:01;16.00;49.10
11239;DHT22;5677;48.488;13.436;2023-05-14T15:14:28;16.00;49.20
11239;DHT22;5677;48.488;13.436;2023-05-14T15:16:55;16.00;49.20
11239;DHT22;5677;48.488;13.436;2023-05-14T15:19:21;16.00;49.20
11239;DHT22;5677;48.488;13.436;2023-05-14T15:21:49;16.00;49.20
11239;DHT22;5677;48.488;13.436;2023-05-14T15:24:16;16.00;49.20
11239;DHT22;5677;48.488;13.436;2023-05-14T15:26:43;16.00;49.20
11239;DHT22;5677;48.488;13.436;2023-05-14T15:29:10;16.00;49.20
11239;DHT22;5677;48.488;13.436;2023-05-14T15:31:37;16.00;49.20
11239;DHT22;5677;48.488;13.436;2023-05-14T15:34:04;16.00;49.20